Time;durP1;ratioP1;P1;durP2;ratioP2;P2;SDS_P1;SDS_P2;PMS_P1;PMS_P2;Temp;Humidity;BMP_temperature;BMP_pressure;BME280_temperature;BME280_humidity;BME280_pressure;Samples;Min_cycle;Max_cycle;Signal;HPM_P1;HPM_P2
2021/08/07 00:01:05;;;;;;;6.22;3.85;;;;;;;;;;5089840;28;20479;-66
2021/08/07 00:03:31;;;;;;;10.25;4.60;;;;;;;;;;5101663;28;20087;-69
2021/08/07 00:05:58;;;;;;;5.63;3.63;;;;;;;;;;5096040;28;20055;-68
2021/08/07 00:08:24;;;;;;;5.78;3.72;;;;;;;;;;5096387;28;20044;-70
2021/08/07 00:10:50;;;;;;;7.68;3.28;;;;;;;;;;5096509;28;20043;-69
2021/08/07 00:13:16;;;;;;;6.90;3.85;;;;;;;;;;5094619;28;20044;-67
2021/08/07 00:15:43;;;;;;;5.65;3.63;;;;;;;;;;5093248;28;20044;-70
2021/08/07 00:18:09;;;;;;;5.43;3.85;;;;;;;;;;5098327;28;20040;-69
2021/08/07 00:20:35;;;;;;;7.40;3.40;;;;;;;;;;5096289;28;20491;-68
2021/08/07 00:23:01;;;;;;;5.35;3.70;;;;;;;;;;5096364;28;20044;-69
2021/08/07 00:25:28;;;;;;;5.70;3.20;;;;;;;;;;5096102;28;20043;-69
2021/08/07 00:27:55;;;;;;;8.52;3.35;;;;;;;;;;5072870;28;20056;-70
2021/08/07 00:30:21;;;;;;;4.63;3.00;;;;;;;;;;5097715;28;20372;-66
2021/08/07 00:32:47;;;;;;;4.85;3.38;;;;;;;;;;5096042;28;20044;-69
2021/08/07 00:35:16;;;;;;;5.97;3.60;;;;;;;;;;5078171;28;20052;-70
2021/08/07 00:37:43;;;;;;;7.05;3.53;;;;;;;;;;5076450;28;20039;-71
2021/08/07 00:40:12;;;;;;;7.82;4.00;;;;;;;;;;5073976;28;20044;-71
2021/08/07 00:42:40;;;;;;;6.50;3.40;;;;;;;;;;5075945;28;20055;-72
2021/08/07 00:45:24;;;;;;;7.28;3.60;;;;;;;;;;5087286;28;20122;-72
2021/08/07 00:47:51;;;;;;;9.68;3.22;;;;;;;;;;5078034;28;20491;-70
2021/08/07 00:50:19;;;;;;;5.93;3.08;;;;;;;;;;5077719;28;20406;-72
2021/08/07 00:52:48;;;;;;;3.97;3.13;;;;;;;;;;5074180;28;20098;-69
2021/08/07 00:55:20;;;;;;;5.15;3.47;;;;;;;;;;5073053;28;20068;-71
2021/08/07 00:57:47;;;;;;;6.13;3.83;;;;;;;;;;5070764;28;20052;-71
2021/08/07 01:00:17;;;;;;;7.32;3.55;;;;;;;;;;5076120;28;20458;-70
2021/08/07 01:02:48;;;;;;;6.05;3.53;;;;;;;;;;5088245;28;20049;-72
2021/08/07 01:05:17;;;;;;;6.15;3.60;;;;;;;;;;5090989;28;20036;-71
2021/08/07 01:08:04;;;;;;;7.60;4.30;;;;;;;;;;5074252;28;20051;-74
2021/08/07 01:10:56;;;;;;;8.23;4.25;;;;;;;;;;5074599;28;20537;-73
2021/08/07 01:13:49;;;;;;;9.43;4.25;;;;;;;;;;5072715;28;20044;-73
2021/08/07 01:16:25;;;;;;;7.45;3.95;;;;;;;;;;5057527;28;20048;-73
2021/08/07 01:18:53;;;;;;;7.63;4.30;;;;;;;;;;5069518;28;20067;-69
2021/08/07 01:21:22;;;;;;;12.82;4.38;;;;;;;;;;5109373;28;20048;-71
2021/08/07 01:24:12;;;;;;;11.05;4.15;;;;;;;;;;5073340;28;20057;-72
2021/08/07 01:26:56;;;;;;;7.43;4.03;;;;;;;;;;5056427;28;20070;-71
2021/08/07 01:29:25;;;;;;;7.68;4.25;;;;;;;;;;5073898;28;20057;-73
2021/08/07 01:31:56;;;;;;;7.95;4.20;;;;;;;;;;5073576;28;20047;-72
2021/08/07 01:34:32;;;;;;;9.38;4.35;;;;;;;;;;5073940;28;20056;-73
2021/08/07 01:36:59;;;;;;;9.07;4.60;;;;;;;;;;5069689;28;20046;-73
2021/08/07 01:39:45;;;;;;;6.22;4.10;;;;;;;;;;5071591;28;20048;-74
2021/08/07 01:42:15;;;;;;;7.30;4.80;;;;;;;;;;5074580;28;20047;-73
2021/08/07 01:44:43;;;;;;;8.48;4.07;;;;;;;;;;5073902;28;20052;-73
2021/08/07 01:47:15;;;;;;;6.22;4.20;;;;;;;;;;5073791;28;20415;-75
2021/08/07 01:50:02;;;;;;;9.73;4.72;;;;;;;;;;5075008;28;20071;-73
2021/08/07 01:52:33;;;;;;;7.07;4.43;;;;;;;;;;5073377;28;20048;-74
2021/08/07 01:55:10;;;;;;;12.00;4.45;;;;;;;;;;5069059;28;20048;-74
2021/08/07 01:57:46;;;;;;;7.82;4.70;;;;;;;;;;5071311;28;20041;-75
2021/08/07 02:00:14;;;;;;;8.13;4.32;;;;;;;;;;5108065;28;20044;-76
2021/08/07 02:02:42;;;;;;;7.50;3.97;;;;;;;;;;5071684;28;20033;-76
2021/08/07 02:05:17;;;;;;;8.70;3.83;;;;;;;;;;5074076;28;20079;-75
2021/08/07 02:07:49;;;;;;;6.60;3.85;;;;;;;;;;5057250;28;20051;-76
2021/08/07 02:10:15;;;;;;;11.10;4.30;;;;;;;;;;5071325;28;20064;-74
2021/08/07 02:12:44;;;;;;;7.78;4.50;;;;;;;;;;5070667;28;20052;-75
2021/08/07 02:15:18;;;;;;;8.93;3.92;;;;;;;;;;5075552;28;20047;-76
2021/08/07 02:17:46;;;;;;;8.50;4.22;;;;;;;;;;5073381;28;20513;-75
2021/08/07 02:20:14;;;;;;;8.38;4.32;;;;;;;;;;5073484;28;20048;-76
2021/08/07 02:22:42;;;;;;;12.18;4.82;;;;;;;;;;5074822;28;20036;-76
2021/08/07 02:25:09;;;;;;;7.57;5.07;;;;;;;;;;5073901;28;20091;-77
2021/08/07 02:27:48;;;;;;;6.32;4.63;;;;;;;;;;5073670;28;20061;-77
2021/08/07 02:30:16;;;;;;;8.57;5.07;;;;;;;;;;5078959;28;20403;-76
2021/08/07 02:32:47;;;;;;;7.38;4.80;;;;;;;;;;5076942;28;20051;-76
2021/08/07 02:35:14;;;;;;;6.72;2.22;;;;;;;;;;5075549;28;20041;-77
2021/08/07 02:37:42;;;;;;;6.75;4.07;;;;;;;;;;5075386;28;20044;-78
2021/08/07 02:40:10;;;;;;;6.75;3.92;;;;;;;;;;5073684;28;20450;-77
2021/08/07 02:42:44;;;;;;;6.28;4.32;;;;;;;;;;5074098;28;20484;-77
2021/08/07 02:45:11;;;;;;;6.30;4.30;;;;;;;;;;5078790;28;20041;-77
2021/08/07 02:47:38;;;;;;;8.00;4.20;;;;;;;;;;5076848;28;20135;-77
2021/08/07 02:50:07;;;;;;;9.27;4.88;;;;;;;;;;5076612;28;20052;-75
2021/08/07 02:52:35;;;;;;;8.30;4.15;;;;;;;;;;5076255;28;20052;-75
2021/08/07 02:55:03;;;;;;;11.55;4.00;;;;;;;;;;5072639;28;20057;-76
2021/08/07 02:57:31;;;;;;;7.18;3.80;;;;;;;;;;5077172;28;20174;-77
2021/08/07 02:59:58;;;;;;;5.28;3.50;;;;;;;;;;5078171;28;20135;-77
2021/08/07 03:02:25;;;;;;;14.73;3.92;;;;;;;;;;5076386;28;20048;-77
2021/08/07 03:04:51;;;;;;;4.93;3.45;;;;;;;;;;5071590;28;20114;-77
2021/08/07 03:07:20;;;;;;;5.03;2.70;;;;;;;;;;5073447;28;20516;-74
2021/08/07 03:09:47;;;;;;;4.80;3.90;;;;;;;;;;5072903;28;20040;-75
2021/08/07 03:12:15;;;;;;;5.00;3.95;;;;;;;;;;5078045;28;20131;-75
2021/08/07 03:14:43;;;;;;;9.95;3.97;;;;;;;;;;5074264;28;20435;-76
2021/08/07 03:17:10;;;;;;;4.65;3.15;;;;;;;;;;5074397;28;20044;-73
2021/08/07 03:19:40;;;;;;;7.38;3.70;;;;;;;;;;5075472;28;20040;-75
2021/08/07 03:22:07;;;;;;;5.85;3.80;;;;;;;;;;5071079;28;20566;-75
2021/08/07 03:24:36;;;;;;;6.05;4.60;;;;;;;;;;5058270;28;20468;-82
2021/08/07 03:27:05;;;;;;;6.55;4.20;;;;;;;;;;5076865;28;20056;-82
2021/08/07 03:29:32;;;;;;;7.18;4.75;;;;;;;;;;5075215;28;20052;-81
2021/08/07 03:32:05;;;;;;;9.15;4.53;;;;;;;;;;5075197;28;20514;-76
2021/08/07 03:34:40;;;;;;;7.18;3.72;;;;;;;;;;5073979;28;20048;-75
2021/08/07 03:37:06;;;;;;;5.13;3.72;;;;;;;;;;5072234;28;20094;-76
2021/08/07 03:39:36;;;;;;;10.50;4.32;;;;;;;;;;5074843;28;20053;-73
2021/08/07 03:42:03;;;;;;;8.93;4.10;;;;;;;;;;5110619;27;20041;-79
2021/08/07 03:44:30;;;;;;;7.65;4.10;;;;;;;;;;5075512;28;20407;-76
2021/08/07 03:46:56;;;;;;;5.95;4.28;;;;;;;;;;5075663;28;20131;-79
2021/08/07 03:49:24;;;;;;;5.05;3.83;;;;;;;;;;5074702;28;20078;-81
2021/08/07 03:51:50;;;;;;;7.38;3.78;;;;;;;;;;5072318;28;20128;-80
2021/08/07 03:54:19;;;;;;;11.35;4.28;;;;;;;;;;5080128;28;20044;-78
2021/08/07 03:56:46;;;;;;;6.38;3.92;;;;;;;;;;5077196;28;20048;-78
2021/08/07 03:59:12;;;;;;;7.43;4.35;;;;;;;;;;5078805;28;20047;-80
2021/08/07 04:01:38;;;;;;;4.70;3.60;;;;;;;;;;5078743;28;20453;-73
2021/08/07 04:04:09;;;;;;;11.23;3.90;;;;;;;;;;5075689;28;20056;-78
2021/08/07 04:06:40;;;;;;;6.05;3.92;;;;;;;;;;5076469;28;20113;-77
2021/08/07 04:09:13;;;;;;;5.57;3.45;;;;;;;;;;5078897;28;20072;-75
2021/08/07 04:11:40;;;;;;;12.00;3.95;;;;;;;;;;5078264;28;20059;-80
2021/08/07 04:14:07;;;;;;;5.05;3.60;;;;;;;;;;5078583;28;20096;-79
2021/08/07 04:16:35;;;;;;;9.60;3.63;;;;;;;;;;5078384;28;20161;-75
2021/08/07 04:19:09;;;;;;;8.23;4.10;;;;;;;;;;5072910;28;20139;-77
2021/08/07 04:21:37;;;;;;;5.78;4.28;;;;;;;;;;5080841;28;20267;-77
2021/08/07 04:24:04;;;;;;;8.57;4.47;;;;;;;;;;5079672;28;20040;-78
2021/08/07 04:26:34;;;;;;;6.43;4.57;;;;;;;;;;5078200;28;20075;-78
2021/08/07 04:29:00;;;;;;;4.82;3.72;;;;;;;;;;5061389;28;20040;-78
2021/08/07 04:31:28;;;;;;;8.00;4.43;;;;;;;;;;5076577;28;20066;-77
2021/08/07 04:33:54;;;;;;;7.53;4.40;;;;;;;;;;5072775;28;20521;-76
2021/08/07 04:36:21;;;;;;;9.85;4.20;;;;;;;;;;5079417;28;20052;-78
2021/08/07 04:38:47;;;;;;;6.80;3.42;;;;;;;;;;5078032;28;20101;-77
2021/08/07 04:41:14;;;;;;;11.40;4.07;;;;;;;;;;5077869;28;20487;-78
2021/08/07 04:43:40;;;;;;;8.00;3.60;;;;;;;;;;5077881;28;20058;-79
2021/08/07 04:46:07;;;;;;;5.78;4.00;;;;;;;;;;5074630;28;20048;-78
2021/08/07 04:48:33;;;;;;;6.47;3.63;;;;;;;;;;5078076;28;20040;-78
2021/08/07 04:51:03;;;;;;;6.00;4.03;;;;;;;;;;5079415;28;20059;-78
2021/08/07 04:53:34;;;;;;;7.47;3.38;;;;;;;;;;5077729;28;20392;-80
2021/08/07 04:56:06;;;;;;;5.13;3.58;;;;;;;;;;5077750;28;20051;-77
2021/08/07 04:58:32;;;;;;;5.05;3.47;;;;;;;;;;5077517;28;20051;-78
2021/08/07 05:00:59;;;;;;;7.65;4.28;;;;;;;;;;5073350;28;20089;-76
2021/08/07 05:03:26;;;;;;;8.18;3.60;;;;;;;;;;5097446;28;20056;-76
2021/08/07 05:05:53;;;;;;;4.93;2.60;;;;;;;;;;5077329;28;20075;-74
2021/08/07 05:08:21;;;;;;;3.75;3.13;;;;;;;;;;5077404;28;20044;-74
2021/08/07 05:10:48;;;;;;;4.85;2.92;;;;;;;;;;5076295;28;20055;-74
2021/08/07 05:13:15;;;;;;;9.10;3.00;;;;;;;;;;5091716;28;20036;-76
2021/08/07 05:15:41;;;;;;;6.10;2.70;;;;;;;;;;5075447;28;20048;-75
2021/08/07 05:18:08;;;;;;;4.35;2.85;;;;;;;;;;5077956;28;20059;-72
2021/08/07 05:20:35;;;;;;;6.03;2.50;;;;;;;;;;5071291;28;20101;-71
2021/08/07 05:23:02;;;;;;;4.60;2.65;;;;;;;;;;5075348;28;20118;-72
2021/08/07 05:25:28;;;;;;;3.33;2.28;;;;;;;;;;5072725;28;20067;-75
2021/08/07 05:27:55;;;;;;;7.60;2.53;;;;;;;;;;5073094;28;20055;-73
2021/08/07 05:30:22;;;;;;;4.90;2.17;;;;;;;;;;5075489;28;20037;-69
2021/08/07 05:32:51;;;;;;;4.88;2.33;;;;;;;;;;5090397;28;20403;-71
2021/08/07 05:35:17;;;;;;;3.63;2.33;;;;;;;;;;5069677;28;20527;-71
2021/08/07 05:37:44;;;;;;;7.95;2.53;;;;;;;;;;5072195;28;20032;-69
2021/08/07 05:40:13;;;;;;;4.47;2.00;;;;;;;;;;5072263;28;20047;-69
2021/08/07 05:42:43;;;;;;;3.60;1.90;;;;;;;;;;5072769;28;20104;-69
2021/08/07 05:45:10;;;;;;;4.13;2.03;;;;;;;;;;5110174;28;20415;-69
2021/08/07 05:47:37;;;;;;;4.50;2.05;;;;;;;;;;5088999;28;20059;-68
2021/08/07 05:50:06;;;;;;;4.55;2.08;;;;;;;;;;5065674;28;20048;-68
2021/08/07 05:52:33;;;;;;;4.63;1.80;;;;;;;;;;5067768;28;20113;-68
2021/08/07 05:55:02;;;;;;;2.70;1.90;;;;;;;;;;5070072;28;20044;-69
2021/08/07 05:57:29;;;;;;;4.43;2.17;;;;;;;;;;5067090;28;20048;-67
2021/08/07 05:59:56;;;;;;;4.70;1.75;;;;;;;;;;5076756;28;20123;-68
2021/08/07 06:02:22;;;;;;;5.28;1.90;;;;;;;;;;5067300;28;20047;-67
2021/08/07 06:04:51;;;;;;;5.80;1.95;;;;;;;;;;5065477;28;20534;-67
2021/08/07 06:07:18;;;;;;;4.18;1.92;;;;;;;;;;5062022;28;20047;-68
2021/08/07 06:09:46;;;;;;;4.93;2.70;;;;;;;;;;5074258;28;20418;-68
2021/08/07 06:12:14;;;;;;;7.30;1.95;;;;;;;;;;5072859;28;20101;-67
2021/08/07 06:14:40;;;;;;;5.53;2.10;;;;;;;;;;5069139;28;20102;-66
2021/08/07 06:17:08;;;;;;;3.88;1.85;;;;;;;;;;5068279;28;20048;-67
2021/08/07 06:19:37;;;;;;;5.78;1.75;;;;;;;;;;5070738;28;20419;-66
2021/08/07 06:22:04;;;;;;;4.53;1.70;;;;;;;;;;5075594;28;20052;-68
2021/08/07 06:24:31;;;;;;;2.25;1.30;;;;;;;;;;5090878;28;20491;-67
2021/08/07 06:26:57;;;;;;;4.20;2.03;;;;;;;;;;5086684;28;20135;-66
2021/08/07 06:29:23;;;;;;;3.03;1.65;;;;;;;;;;5071434;28;20436;-66
2021/08/07 06:31:50;;;;;;;4.72;1.60;;;;;;;;;;5101730;28;20037;-65
2021/08/07 06:34:17;;;;;;;2.75;1.45;;;;;;;;;;5071604;28;20071;-67
2021/08/07 06:36:44;;;;;;;2.10;1.42;;;;;;;;;;5072212;28;20636;-65
2021/08/07 06:39:10;;;;;;;2.30;1.45;;;;;;;;;;5072071;28;20051;-64
2021/08/07 06:41:37;;;;;;;2.70;1.70;;;;;;;;;;5068339;28;20086;-65
2021/08/07 06:44:06;;;;;;;4.35;1.80;;;;;;;;;;5068250;28;20489;-65
2021/08/07 06:46:36;;;;;;;2.75;1.40;;;;;;;;;;5068157;28;20044;-64
2021/08/07 06:49:03;;;;;;;7.15;2.20;;;;;;;;;;5072440;28;20070;-64
2021/08/07 06:51:29;;;;;;;4.45;2.05;;;;;;;;;;5071174;28;20427;-65
2021/08/07 06:53:56;;;;;;;6.07;1.90;;;;;;;;;;5069350;28;20055;-65
2021/08/07 06:56:23;;;;;;;6.10;1.70;;;;;;;;;;5070861;28;20047;-64
2021/08/07 06:58:49;;;;;;;4.90;1.77;;;;;;;;;;5088713;28;20048;-64
2021/08/07 07:01:15;;;;;;;4.07;1.90;;;;;;;;;;5072811;28;20044;-65
2021/08/07 07:03:43;;;;;;;4.25;1.65;;;;;;;;;;5073293;28;20052;-65
2021/08/07 07:06:10;;;;;;;4.20;1.70;;;;;;;;;;5081954;28;20052;-65
2021/08/07 07:08:37;;;;;;;4.85;1.92;;;;;;;;;;5077606;28;20048;-65
2021/08/07 07:11:03;;;;;;;9.63;2.50;;;;;;;;;;5077851;28;20056;-64
2021/08/07 07:13:29;;;;;;;3.95;1.80;;;;;;;;;;5079399;28;20048;-65
2021/08/07 07:15:56;;;;;;;3.00;1.80;;;;;;;;;;5093107;28;20044;-64
2021/08/07 07:18:24;;;;;;;4.10;1.85;;;;;;;;;;5081477;28;20129;-65
2021/08/07 07:20:50;;;;;;;3.47;1.77;;;;;;;;;;5079593;28;20052;-64
2021/08/07 07:23:17;;;;;;;3.13;1.70;;;;;;;;;;5079497;28;20071;-65
2021/08/07 07:25:44;;;;;;;2.67;1.30;;;;;;;;;;5079560;28;20065;-65
2021/08/07 07:28:10;;;;;;;6.82;1.80;;;;;;;;;;5076529;28;20040;-65
2021/08/07 07:30:37;;;;;;;3.10;1.83;;;;;;;;;;5078384;28;20087;-65
2021/08/07 07:33:03;;;;;;;8.60;2.17;;;;;;;;;;5098395;28;20388;-65
2021/08/07 07:35:30;;;;;;;4.18;1.58;;;;;;;;;;5079293;28;20117;-64
2021/08/07 07:37:58;;;;;;;4.93;1.92;;;;;;;;;;5079223;28;20052;-66
2021/08/07 07:40:24;;;;;;;2.95;1.88;;;;;;;;;;5078018;28;20160;-65
2021/08/07 07:42:50;;;;;;;6.63;1.80;;;;;;;;;;5075543;28;20052;-65
2021/08/07 07:45:17;;;;;;;6.00;1.98;;;;;;;;;;5080936;28;20048;-64
2021/08/07 07:47:44;;;;;;;5.18;1.70;;;;;;;;;;5077858;28;20083;-65
2021/08/07 07:50:13;;;;;;;3.65;1.80;;;;;;;;;;5077574;28;20490;-64
2021/08/07 07:52:42;;;;;;;2.72;1.85;;;;;;;;;;5078569;28;20058;-64
2021/08/07 07:55:09;;;;;;;3.72;2.00;;;;;;;;;;5075667;28;20052;-64
2021/08/07 07:57:39;;;;;;;3.55;2.05;;;;;;;;;;5077498;28;20113;-64
2021/08/07 08:00:07;;;;;;;2.67;1.90;;;;;;;;;;5079224;28;20078;-64
2021/08/07 08:02:45;;;;;;;6.75;2.28;;;;;;;;;;5091637;28;20043;-64
2021/08/07 08:05:16;;;;;;;4.72;2.33;;;;;;;;;;5078348;28;20074;-65
2021/08/07 08:07:42;;;;;;;5.25;2.17;;;;;;;;;;5068731;28;20139;-64
2021/08/07 08:10:13;;;;;;;7.13;2.28;;;;;;;;;;5078173;28;20410;-65
2021/08/07 08:12:40;;;;;;;7.50;2.30;;;;;;;;;;5053235;28;20045;-64
2021/08/07 08:15:07;;;;;;;3.33;2.10;;;;;;;;;;5104756;28;20114;-64
2021/08/07 08:17:35;;;;;;;3.92;2.15;;;;;;;;;;5081248;28;20039;-64
2021/08/07 08:20:02;;;;;;;3.22;2.13;;;;;;;;;;5078090;28;20074;-64
2021/08/07 08:22:29;;;;;;;5.38;2.30;;;;;;;;;;5071208;28;20484;-67
2021/08/07 08:24:55;;;;;;;4.78;2.65;;;;;;;;;;5086711;28;20446;-66
2021/08/07 08:27:21;;;;;;;3.42;2.15;;;;;;;;;;5069500;28;20044;-67
2021/08/07 08:29:50;;;;;;;4.57;1.88;;;;;;;;;;5065329;28;20048;-66
2021/08/07 08:32:16;;;;;;;4.20;2.63;;;;;;;;;;5064732;28;20045;-67
2021/08/07 08:34:43;;;;;;;5.68;1.95;;;;;;;;;;5086770;28;20047;-64
2021/08/07 08:37:10;;;;;;;3.35;1.98;;;;;;;;;;5100861;28;20048;-64
2021/08/07 08:39:37;;;;;;;3.38;2.10;;;;;;;;;;5067685;28;20044;-65
2021/08/07 08:42:06;;;;;;;3.45;2.10;;;;;;;;;;5102471;28;20051;-64
2021/08/07 08:44:33;;;;;;;3.95;2.25;;;;;;;;;;5070562;28;20070;-66
2021/08/07 08:47:00;;;;;;;3.20;1.80;;;;;;;;;;5100969;28;20106;-64
2021/08/07 08:49:29;;;;;;;2.72;1.95;;;;;;;;;;5058017;28;20058;-64
2021/08/07 08:51:55;;;;;;;2.88;2.00;;;;;;;;;;5071747;28;20079;-65
2021/08/07 08:54:22;;;;;;;3.20;2.28;;;;;;;;;;5059438;28;20471;-65
2021/08/07 08:56:49;;;;;;;5.50;2.20;;;;;;;;;;5059508;28;20522;-78
2021/08/07 08:59:20;;;;;;;2.90;1.90;;;;;;;;;;5093160;28;20080;-75
2021/08/07 09:01:46;;;;;;;3.58;2.50;;;;;;;;;;5099703;27;20067;-77
2021/08/07 09:04:14;;;;;;;8.52;2.35;;;;;;;;;;5072982;28;20400;-76
2021/08/07 09:06:41;;;;;;;3.03;1.90;;;;;;;;;;5075583;28;20044;-78
2021/08/07 09:09:09;;;;;;;3.20;2.03;;;;;;;;;;5072352;28;20052;-76
2021/08/07 09:11:37;;;;;;;3.08;2.30;;;;;;;;;;5069490;28;20052;-77
2021/08/07 09:14:23;;;;;;;2.47;1.67;;;;;;;;;;5071321;28;20047;-79
2021/08/07 09:17:00;;;;;;;3.38;1.92;;;;;;;;;;5105579;28;20489;-73
2021/08/07 09:19:39;;;;;;;5.07;2.22;;;;;;;;;;5072107;28;20052;-75
2021/08/07 09:22:08;;;;;;;3.42;2.08;;;;;;;;;;5058003;28;20040;-75
2021/08/07 09:24:52;;;;;;;3.85;2.10;;;;;;;;;;5094690;28;20055;-75
2021/08/07 09:27:27;;;;;;;3.10;2.20;;;;;;;;;;5097028;28;20487;-74
2021/08/07 09:29:53;;;;;;;5.50;2.17;;;;;;;;;;5076312;28;20048;-75
2021/08/07 09:32:20;;;;;;;3.88;2.00;;;;;;;;;;5077898;28;20148;-76
2021/08/07 09:35:05;;;;;;;7.07;2.00;;;;;;;;;;5080999;28;20515;-74
2021/08/07 09:37:32;;;;;;;4.35;1.95;;;;;;;;;;5080988;28;20063;-75
2021/08/07 09:40:00;;;;;;;4.82;1.88;;;;;;;;;;5094321;28;20108;-73
2021/08/07 09:42:31;;;;;;;3.70;2.10;;;;;;;;;;5124675;27;20047;-73
2021/08/07 09:45:02;;;;;;;4.95;2.25;;;;;;;;;;5079812;28;20403;-72
2021/08/07 09:47:33;;;;;;;3.80;2.10;;;;;;;;;;5081320;28;20054;-73
2021/08/07 09:50:01;;;;;;;11.70;2.97;;;;;;;;;;5098406;28;20374;-70
2021/08/07 09:52:39;;;;;;;3.17;1.90;;;;;;;;;;5080096;28;20059;-70
2021/08/07 09:55:08;;;;;;;5.20;2.00;;;;;;;;;;5095926;28;20056;-72
2021/08/07 09:57:34;;;;;;;5.47;2.28;;;;;;;;;;5080727;28;20050;-70
2021/08/07 10:00:03;;;;;;;10.52;3.00;;;;;;;;;;5082230;28;20165;-71
2021/08/07 10:02:36;;;;;;;3.55;2.58;;;;;;;;;;5096828;28;20479;-71
2021/08/07 10:05:11;;;;;;;2.67;2.05;;;;;;;;;;5078683;28;20047;-72
2021/08/07 10:07:39;;;;;;;3.03;1.85;;;;;;;;;;5080293;28;20046;-69
2021/08/07 10:10:21;;;;;;;3.28;2.22;;;;;;;;;;5077692;28;20093;-71
2021/08/07 10:12:51;;;;;;;3.55;2.10;;;;;;;;;;5063310;28;20506;-71
2021/08/07 10:15:26;;;;;;;6.53;2.35;;;;;;;;;;5089582;28;20395;-70
2021/08/07 10:17:54;;;;;;;4.85;2.55;;;;;;;;;;5091583;28;20071;-71
2021/08/07 10:20:21;;;;;;;4.15;2.50;;;;;;;;;;5077163;28;20044;-72
2021/08/07 10:22:48;;;;;;;5.88;2.40;;;;;;;;;;5095532;28;20036;-72
2021/08/07 10:25:14;;;;;;;3.63;2.80;;;;;;;;;;5075708;28;20769;-72
2021/08/07 10:27:41;;;;;;;4.10;2.63;;;;;;;;;;5078469;28;20056;-72
2021/08/07 10:30:11;;;;;;;3.65;2.47;;;;;;;;;;5081771;28;20044;-70
2021/08/07 10:32:43;;;;;;;3.75;2.85;;;;;;;;;;5079623;28;20052;-74
2021/08/07 10:35:11;;;;;;;3.40;2.35;;;;;;;;;;5079664;28;20419;-73
2021/08/07 10:37:40;;;;;;;4.32;2.95;;;;;;;;;;5079981;28;20051;-72
2021/08/07 10:40:07;;;;;;;4.88;3.17;;;;;;;;;;5069629;28;20044;-69
2021/08/07 10:42:35;;;;;;;5.00;3.22;;;;;;;;;;5064074;28;20040;-71
2021/08/07 10:45:03;;;;;;;4.20;2.88;;;;;;;;;;5070871;28;20048;-73
2021/08/07 10:47:36;;;;;;;4.15;3.08;;;;;;;;;;5105840;28;20048;-71
2021/08/07 10:50:22;;;;;;;5.70;3.15;;;;;;;;;;5070051;28;20048;-71
2021/08/07 10:52:48;;;;;;;6.70;3.33;;;;;;;;;;5069203;28;20072;-71
2021/08/07 10:55:33;;;;;;;5.28;3.40;;;;;;;;;;5087022;28;20064;-71
2021/08/07 10:58:00;;;;;;;4.57;3.47;;;;;;;;;;5075302;28;20484;-70
2021/08/07 11:00:26;;;;;;;6.95;3.88;;;;;;;;;;5088503;28;20052;-71
2021/08/07 11:03:12;;;;;;;11.18;3.70;;;;;;;;;;5080024;28;20449;-71
2021/08/07 11:05:48;;;;;;;3.88;3.30;;;;;;;;;;5079445;28;20049;-69
2021/08/07 11:08:15;;;;;;;5.93;3.50;;;;;;;;;;5079359;28;20048;-70
2021/08/07 11:10:42;;;;;;;5.88;3.50;;;;;;;;;;5079454;28;20052;-73
2021/08/07 11:13:21;;;;;;;6.95;3.83;;;;;;;;;;5075939;28;20101;-74
2021/08/07 11:15:48;;;;;;;8.73;4.10;;;;;;;;;;5076643;28;20064;-71
2021/08/07 11:18:24;;;;;;;4.60;3.63;;;;;;;;;;5078568;28;20117;-71
2021/08/07 11:20:51;;;;;;;3.60;3.17;;;;;;;;;;5094580;28;20419;-68
2021/08/07 11:23:18;;;;;;;4.15;3.00;;;;;;;;;;5096756;28;20567;-74
2021/08/07 11:25:52;;;;;;;4.10;3.17;;;;;;;;;;5097002;28;20039;-75
2021/08/07 11:28:21;;;;;;;4.05;3.10;;;;;;;;;;5095171;28;20106;-73
2021/08/07 11:30:47;;;;;;;6.50;3.25;;;;;;;;;;5093588;28;20105;-73
2021/08/07 11:33:15;;;;;;;7.88;3.63;;;;;;;;;;5079766;28;20134;-71
2021/08/07 11:35:42;;;;;;;4.45;3.40;;;;;;;;;;5094449;28;20498;-69
2021/08/07 11:38:14;;;;;;;4.88;3.05;;;;;;;;;;5093889;28;20064;-68
2021/08/07 11:41:10;;;;;;;3.25;2.50;;;;;;;;;;5093108;28;20479;-69
2021/08/07 11:43:38;;;;;;;3.95;2.90;;;;;;;;;;4993609;28;20077;-68
2021/08/07 11:46:08;;;;;;;3.97;2.83;;;;;;;;;;4989798;28;20046;-69
2021/08/07 11:48:35;;;;;;;2.75;2.25;;;;;;;;;;4993343;28;20421;-69
2021/08/07 11:51:11;;;;;;;3.67;2.30;;;;;;;;;;4994901;28;20050;-69
2021/08/07 11:53:39;;;;;;;3.53;2.20;;;;;;;;;;5005902;28;20054;-71
2021/08/07 11:56:12;;;;;;;3.45;2.72;;;;;;;;;;4981879;28;20133;-72
2021/08/07 11:58:47;;;;;;;4.65;2.55;;;;;;;;;;4993859;28;20060;-70
2021/08/07 12:01:14;;;;;;;4.07;2.13;;;;;;;;;;4991782;28;20066;-69
2021/08/07 12:03:40;;;;;;;5.97;2.25;;;;;;;;;;4994032;28;20042;-70
2021/08/07 12:06:07;;;;;;;2.83;2.20;;;;;;;;;;4995954;28;20138;-74
2021/08/07 12:08:35;;;;;;;2.83;1.90;;;;;;;;;;4995619;28;20129;-70
2021/08/07 12:11:02;;;;;;;2.30;1.80;;;;;;;;;;4995885;28;20050;-76
2021/08/07 12:13:30;;;;;;;2.08;1.60;;;;;;;;;;4994847;28;20053;-73
2021/08/07 12:15:56;;;;;;;2.50;1.70;;;;;;;;;;4999047;28;20066;-74
2021/08/07 12:18:23;;;;;;;2.50;1.70;;;;;;;;;;4996200;28;20057;-75
2021/08/07 12:20:49;;;;;;;2.78;1.70;;;;;;;;;;5060376;28;20421;-74
2021/08/07 12:23:15;;;;;;;1.98;1.50;;;;;;;;;;5090574;28;20044;-74
2021/08/07 12:25:42;;;;;;;2.67;1.88;;;;;;;;;;5096007;28;20436;-68
2021/08/07 12:28:16;;;;;;;2.70;1.75;;;;;;;;;;5090733;28;20048;-68
2021/08/07 12:31:02;;;;;;;2.40;1.77;;;;;;;;;;5093609;28;20388;-69
2021/08/07 12:33:33;;;;;;;3.00;1.77;;;;;;;;;;5104096;28;20048;-68
2021/08/07 12:36:09;;;;;;;4.18;2.13;;;;;;;;;;5092645;28;20047;-69
2021/08/07 12:38:40;;;;;;;2.45;1.70;;;;;;;;;;5093438;28;20112;-72
2021/08/07 12:41:06;;;;;;;2.60;1.90;;;;;;;;;;5093829;28;20046;-71
2021/08/07 12:43:33;;;;;;;2.00;1.70;;;;;;;;;;5076018;28;20044;-73
2021/08/07 12:46:01;;;;;;;2.50;1.60;;;;;;;;;;5090703;28;20047;-71
2021/08/07 12:48:28;;;;;;;2.78;1.90;;;;;;;;;;5095019;28;20097;-72
2021/08/07 12:51:03;;;;;;;2.65;2.10;;;;;;;;;;5093767;28;20048;-76
2021/08/07 12:53:39;;;;;;;6.65;1.90;;;;;;;;;;5099738;28;20048;-73
2021/08/07 12:56:06;;;;;;;2.30;1.67;;;;;;;;;;5084619;28;20048;-73
2021/08/07 12:58:32;;;;;;;2.15;1.80;;;;;;;;;;5074623;28;20488;-73
2021/08/07 13:01:12;;;;;;;2.80;1.75;;;;;;;;;;5055254;28;20102;-75
2021/08/07 13:03:51;;;;;;;2.53;1.58;;;;;;;;;;5080688;28;20055;-76
2021/08/07 13:06:18;;;;;;;3.53;1.85;;;;;;;;;;5079790;28;20067;-75
2021/08/07 13:08:44;;;;;;;3.13;1.75;;;;;;;;;;5076766;28;20057;-77
2021/08/07 13:11:17;;;;;;;1.88;1.45;;;;;;;;;;5072920;28;20119;-76
2021/08/07 13:13:44;;;;;;;2.15;1.48;;;;;;;;;;5074999;28;20514;-75
2021/08/07 13:16:10;;;;;;;2.20;1.60;;;;;;;;;;5072865;28;20048;-76
2021/08/07 13:18:36;;;;;;;1.92;1.40;;;;;;;;;;5073032;28;20265;-74
2021/08/07 13:21:03;;;;;;;2.65;1.30;;;;;;;;;;5084903;28;20059;-75
2021/08/07 13:23:33;;;;;;;2.17;1.30;;;;;;;;;;5083917;28;20040;-76
2021/08/07 13:26:07;;;;;;;2.63;1.50;;;;;;;;;;5084003;28;20040;-76
2021/08/07 13:28:34;;;;;;;5.15;1.38;;;;;;;;;;5085477;28;20507;-72
2021/08/07 13:31:00;;;;;;;3.05;1.30;;;;;;;;;;5090205;28;20048;-74
2021/08/07 13:33:28;;;;;;;3.17;1.20;;;;;;;;;;5087822;28;20474;-75
2021/08/07 13:35:55;;;;;;;2.42;1.48;;;;;;;;;;5094513;28;20392;-74
2021/08/07 13:38:21;;;;;;;2.15;1.60;;;;;;;;;;5093807;28;20040;-74
2021/08/07 13:40:47;;;;;;;3.28;1.67;;;;;;;;;;5093161;28;20047;-75
2021/08/07 13:43:14;;;;;;;3.40;1.48;;;;;;;;;;5092213;28;20048;-75
2021/08/07 13:45:44;;;;;;;4.50;2.10;;;;;;;;;;5093716;28;20072;-78
2021/08/07 13:48:10;;;;;;;1.98;1.45;;;;;;;;;;5096247;28;20082;-75
2021/08/07 13:50:37;;;;;;;4.57;1.90;;;;;;;;;;5094966;28;20044;-75
2021/08/07 13:53:03;;;;;;;2.10;1.45;;;;;;;;;;5094358;28;20048;-76
2021/08/07 13:55:29;;;;;;;1.92;1.40;;;;;;;;;;5094126;28;20086;-76
2021/08/07 13:57:56;;;;;;;4.35;1.40;;;;;;;;;;5090349;28;20055;-70
2021/08/07 14:00:22;;;;;;;5.15;1.52;;;;;;;;;;5096181;28;20055;-73
2021/08/07 14:02:49;;;;;;;2.35;1.40;;;;;;;;;;5094935;28;20055;-70
2021/08/07 14:05:15;;;;;;;3.08;1.27;;;;;;;;;;5094533;28;20044;-70
2021/08/07 14:07:42;;;;;;;2.85;1.30;;;;;;;;;;5094450;28;20050;-76
2021/08/07 14:10:08;;;;;;;2.15;1.40;;;;;;;;;;5091008;28;20044;-78
2021/08/07 14:12:35;;;;;;;3.15;1.55;;;;;;;;;;5076282;28;20044;-78
2021/08/07 14:15:01;;;;;;;3.30;1.38;;;;;;;;;;5094913;28;20063;-78
2021/08/07 14:17:27;;;;;;;5.32;1.40;;;;;;;;;;5092960;28;20067;-82
2021/08/07 14:19:54;;;;;;;1.75;1.30;;;;;;;;;;5096394;28;20502;-80
2021/08/07 14:22:20;;;;;;;2.20;1.50;;;;;;;;;;5096279;28;20044;-80
2021/08/07 14:24:47;;;;;;;1.90;1.48;;;;;;;;;;5077288;28;20395;-80
2021/08/07 14:27:13;;;;;;;2.40;1.45;;;;;;;;;;5081908;28;20048;-81
2021/08/07 14:29:40;;;;;;;3.33;1.30;;;;;;;;;;5097744;28;20048;-80
2021/08/07 14:32:06;;;;;;;5.68;1.30;;;;;;;;;;5098369;28;20123;-78
2021/08/07 14:34:32;;;;;;;2.40;1.55;;;;;;;;;;5097738;28;20517;-77
2021/08/07 14:36:59;;;;;;;2.75;1.50;;;;;;;;;;5077222;28;20041;-78
2021/08/07 14:39:26;;;;;;;2.42;1.30;;;;;;;;;;5099743;28;20559;-78
2021/08/07 14:41:52;;;;;;;4.85;2.40;;;;;;;;;;5097713;28;20411;-77
2021/08/07 14:44:19;;;;;;;2.40;1.90;;;;;;;;;;5097503;28;20100;-78
2021/08/07 14:46:45;;;;;;;2.20;1.60;;;;;;;;;;5097805;28;20498;-77
2021/08/07 14:49:11;;;;;;;3.05;1.75;;;;;;;;;;5094632;28;20068;-77
2021/08/07 14:51:37;;;;;;;1.77;1.20;;;;;;;;;;5097503;28;20059;-77
2021/08/07 14:54:04;;;;;;;4.05;1.38;;;;;;;;;;5114031;27;20067;-76